Sheldon Springs, Vermont
Current Conditions -  °F | °C
As of 10:55 AM on Friday 24 Oct 2014 (Local Time) from KFSO Reporting Station
Overcast Overcast  
Wind Chill: 39°   Ceiling: 1900
Heat Index: 43°   Visibility: 10mi
Dew Point: 39°   Wind: 7mph
Humidity: 86%   Direction: 10°N
Pressure: 29.87"   Gusts: NA
Location:  44.91°N, 72.98°W
Report Text: KFSO 241455Z AUTO 01006KT 10SM OVC019 06/04 A2987 RMK AO2 T00610039
Loading
Personal Weather Stations






























Interactive Weather Map
Tropical Storm Tracking
New forecast layout! Learn more

10-Day Weather Forecast

Advertisements
Track Severe Weather on mobile